sensor_id;sensor_type;location;lat;lon;timestamp;temperature;humidity
20233;DHT22;37438;55.674;13.074;2023-02-28T00:02:31;3.70;99.90
20233;DHT22;37438;55.674;13.074;2023-02-28T00:05:35;3.60;99.90
20233;DHT22;37438;55.674;13.074;2023-02-28T00:08:40;3.70;99.90
20233;DHT22;37438;55.674;13.074;2023-02-28T00:11:44;3.70;99.90
20233;DHT22;37438;55.674;13.074;2023-02-28T00:14:49;3.60;99.90
20233;DHT22;37438;55.674;13.074;2023-02-28T00:17:54;3.50;99.90
20233;DHT22;37438;55.674;13.074;2023-02-28T00:20:59;3.60;99.90
20233;DHT22;37438;55.674;13.074;2023-02-28T00:24:03;3.30;99.90
20233;DHT22;37438;55.674;13.074;2023-02-28T00:27:08;3.50;99.90
20233;DHT22;37438;55.674;13.074;2023-02-28T00:30:15;3.40;99.90
20233;DHT22;37438;55.674;13.074;2023-02-28T00:33:20;3.50;99.90
20233;DHT22;37438;55.674;13.074;2023-02-28T00:36:25;3.40;99.90
20233;DHT22;37438;55.674;13.074;2023-02-28T00:39:29;3.30;99.90
20233;DHT22;37438;55.674;13.074;2023-02-28T00:42:34;3.20;99.90
20233;DHT22;37438;55.674;13.074;2023-02-28T00:45:39;3.20;99.90
20233;DHT22;37438;55.674;13.074;2023-02-28T00:48:43;3.20;99.90
20233;DHT22;37438;55.674;13.074;2023-02-28T00:51:47;3.20;99.90
20233;DHT22;37438;55.674;13.074;2023-02-28T00:54:52;3.10;99.90
20233;DHT22;37438;55.674;13.074;2023-02-28T00:57:57;3.00;99.90
20233;DHT22;37438;55.674;13.074;2023-02-28T01:01:02;3.10;99.90
20233;DHT22;37438;55.674;13.074;2023-02-28T01:04:07;2.90;99.90
20233;DHT22;37438;55.674;13.074;2023-02-28T01:07:12;2.90;99.90
20233;DHT22;37438;55.674;13.074;2023-02-28T01:10:17;2.70;99.90
20233;DHT22;37438;55.674;13.074;2023-02-28T01:13:22;2.80;99.90
20233;DHT22;37438;55.674;13.074;2023-02-28T01:16:27;2.70;99.90
20233;DHT22;37438;55.674;13.074;2023-02-28T01:19:32;2.70;99.90
20233;DHT22;37438;55.674;13.074;2023-02-28T01:22:36;2.70;99.90
20233;DHT22;37438;55.674;13.074;2023-02-28T01:25:41;2.40;99.90
20233;DHT22;37438;55.674;13.074;2023-02-28T01:28:46;2.30;99.90
20233;DHT22;37438;55.674;13.074;2023-02-28T01:31:50;2.40;99.90
20233;DHT22;37438;55.674;13.074;2023-02-28T01:34:54;2.20;99.90
20233;DHT22;37438;55.674;13.074;2023-02-28T01:38:00;2.30;99.90
20233;DHT22;37438;55.674;13.074;2023-02-28T01:41:26;2.20;99.90
20233;DHT22;37438;55.674;13.074;2023-02-28T01:44:58;2.00;99.90
20233;DHT22;37438;55.674;13.074;2023-02-28T01:48:07;1.80;99.90
20233;DHT22;37438;55.674;13.074;2023-02-28T01:51:21;1.90;99.90
20233;DHT22;37438;55.674;13.074;2023-02-28T01:54:33;1.80;99.90
20233;DHT22;37438;55.674;13.074;2023-02-28T01:57:43;1.60;99.90
20233;DHT22;37438;55.674;13.074;2023-02-28T02:00:52;1.80;99.90
20233;DHT22;37438;55.674;13.074;2023-02-28T02:04:00;1.80;99.90
20233;DHT22;37438;55.674;13.074;2023-02-28T02:07:05;1.60;99.90
20233;DHT22;37438;55.674;13.074;2023-02-28T02:13:53;1.80;99.90
20233;DHT22;37438;55.674;13.074;2023-02-28T02:31:24;1.40;99.90
20233;DHT22;37438;55.674;13.074;2023-02-28T02:35:12;1.20;99.90
20233;DHT22;37438;55.674;13.074;2023-02-28T02:41:53;1.20;99.90
20233;DHT22;37438;55.674;13.074;2023-02-28T02:45:06;1.20;99.90
20233;DHT22;37438;55.674;13.074;2023-02-28T02:48:15;1.20;99.90
20233;DHT22;37438;55.674;13.074;2023-02-28T02:51:22;1.20;99.90
20233;DHT22;37438;55.674;13.074;2023-02-28T02:54:31;1.20;99.90
20233;DHT22;37438;55.674;13.074;2023-02-28T02:57:46;1.40;99.90
20233;DHT22;37438;55.674;13.074;2023-02-28T03:00:58;1.40;99.90
20233;DHT22;37438;55.674;13.074;2023-02-28T03:04:08;1.60;99.90
20233;DHT22;37438;55.674;13.074;2023-02-28T03:07:14;1.50;99.90
20233;DHT22;37438;55.674;13.074;2023-02-28T03:10:48;1.50;99.90
20233;DHT22;37438;55.674;13.074;2023-02-28T03:17:46;1.30;99.90
20233;DHT22;37438;55.674;13.074;2023-02-28T03:21:24;1.50;99.90
20233;DHT22;37438;55.674;13.074;2023-02-28T03:28:10;1.60;99.90
20233;DHT22;37438;55.674;13.074;2023-02-28T03:31:25;1.50;99.90
20233;DHT22;37438;55.674;13.074;2023-02-28T03:34:41;1.40;99.90
20233;DHT22;37438;55.674;13.074;2023-02-28T03:38:00;1.50;99.90
20233;DHT22;37438;55.674;13.074;2023-02-28T03:41:19;1.70;99.90
20233;DHT22;37438;55.674;13.074;2023-02-28T03:44:44;1.50;99.90
20233;DHT22;37438;55.674;13.074;2023-02-28T03:47:53;1.70;99.90
20233;DHT22;37438;55.674;13.074;2023-02-28T03:50:59;1.70;99.90
20233;DHT22;37438;55.674;13.074;2023-02-28T03:54:09;1.60;99.90
20233;DHT22;37438;55.674;13.074;2023-02-28T03:57:26;1.60;99.90
20233;DHT22;37438;55.674;13.074;2023-02-28T04:00:37;1.70;99.90
20233;DHT22;37438;55.674;13.074;2023-02-28T04:03:42;1.60;99.90
20233;DHT22;37438;55.674;13.074;2023-02-28T04:06:50;1.50;99.90
20233;DHT22;37438;55.674;13.074;2023-02-28T04:09:54;1.80;99.90
20233;DHT22;37438;55.674;13.074;2023-02-28T04:12:59;1.80;99.90
20233;DHT22;37438;55.674;13.074;2023-02-28T04:16:07;1.60;99.90
20233;DHT22;37438;55.674;13.074;2023-02-28T04:19:24;1.40;99.90
20233;DHT22;37438;55.674;13.074;2023-02-28T04:22:29;1.40;99.90
20233;DHT22;37438;55.674;13.074;2023-02-28T04:25:33;1.40;99.90
20233;DHT22;37438;55.674;13.074;2023-02-28T04:28:38;1.20;99.90
20233;DHT22;37438;55.674;13.074;2023-02-28T04:31:42;1.10;99.90
20233;DHT22;37438;55.674;13.074;2023-02-28T04:34:47;0.90;99.90
20233;DHT22;37438;55.674;13.074;2023-02-28T04:37:51;1.10;99.90
20233;DHT22;37438;55.674;13.074;2023-02-28T04:40:59;0.90;99.90
20233;DHT22;37438;55.674;13.074;2023-02-28T04:44:04;0.90;99.90
20233;DHT22;37438;55.674;13.074;2023-02-28T04:47:09;1.00;99.90
20233;DHT22;37438;55.674;13.074;2023-02-28T04:50:13;0.80;99.90
20233;DHT22;37438;55.674;13.074;2023-02-28T04:53:18;0.70;99.90
20233;DHT22;37438;55.674;13.074;2023-02-28T04:56:23;0.70;99.90
20233;DHT22;37438;55.674;13.074;2023-02-28T04:59:27;0.60;99.90
20233;DHT22;37438;55.674;13.074;2023-02-28T05:02:34;0.60;99.90
20233;DHT22;37438;55.674;13.074;2023-02-28T05:05:39;0.60;99.90
20233;DHT22;37438;55.674;13.074;2023-02-28T05:08:44;0.70;99.90
20233;DHT22;37438;55.674;13.074;2023-02-28T05:11:48;0.70;99.90
20233;DHT22;37438;55.674;13.074;2023-02-28T05:14:53;0.70;99.90
20233;DHT22;37438;55.674;13.074;2023-02-28T05:17:57;0.60;99.90
20233;DHT22;37438;55.674;13.074;2023-02-28T05:21:02;0.70;99.90
20233;DHT22;37438;55.674;13.074;2023-02-28T05:24:10;0.70;99.90
20233;DHT22;37438;55.674;13.074;2023-02-28T05:27:15;0.60;99.90
20233;DHT22;37438;55.674;13.074;2023-02-28T05:30:19;0.40;99.90
20233;DHT22;37438;55.674;13.074;2023-02-28T05:33:24;0.50;99.90
20233;DHT22;37438;55.674;13.074;2023-02-28T05:36:28;0.60;99.90
20233;DHT22;37438;55.674;13.074;2023-02-28T05:39:32;0.50;99.90
20233;DHT22;37438;55.674;13.074;2023-02-28T05:42:37;0.60;99.90
20233;DHT22;37438;55.674;13.074;2023-02-28T05:45:42;0.70;99.90
20233;DHT22;37438;55.674;13.074;2023-02-28T05:48:47;0.90;99.90
20233;DHT22;37438;55.674;13.074;2023-02-28T05:51:52;0.90;99.90
20233;DHT22;37438;55.674;13.074;2023-02-28T05:54:56;0.90;99.90
20233;DHT22;37438;55.674;13.074;2023-02-28T05:58:01;1.00;99.90
20233;DHT22;37438;55.674;13.074;2023-02-28T06:04:36;0.80;99.90
20233;DHT22;37438;55.674;13.074;2023-02-28T06:07:41;1.10;99.90
20233;DHT22;37438;55.674;13.074;2023-02-28T06:10:45;1.00;99.90
20233;DHT22;37438;55.674;13.074;2023-02-28T06:13:49;0.90;99.90
20233;DHT22;37438;55.674;13.074;2023-02-28T06:16:57;0.70;99.90
20233;DHT22;37438;55.674;13.074;2023-02-28T06:20:02;1.10;99.90
20233;DHT22;37438;55.674;13.074;2023-02-28T06:23:07;1.50;99.90
20233;DHT22;37438;55.674;13.074;2023-02-28T06:26:11;1.60;99.90
20233;DHT22;37438;55.674;13.074;2023-02-28T06:29:16;1.70;99.90
20233;DHT22;37438;55.674;13.074;2023-02-28T06:32:22;1.90;99.90
20233;DHT22;37438;55.674;13.074;2023-02-28T06:35:27;2.00;99.90
20233;DHT22;37438;55.674;13.074;2023-02-28T06:38:32;2.00;99.90
20233;DHT22;37438;55.674;13.074;2023-02-28T06:41:37;2.00;99.90
20233;DHT22;37438;55.674;13.074;2023-02-28T06:44:58;2.40;99.90
20233;DHT22;37438;55.674;13.074;2023-02-28T06:48:02;2.70;99.90
20233;DHT22;37438;55.674;13.074;2023-02-28T06:51:09;2.70;99.90
20233;DHT22;37438;55.674;13.074;2023-02-28T06:54:15;3.10;99.90
20233;DHT22;37438;55.674;13.074;2023-02-28T06:57:19;3.30;99.90
20233;DHT22;37438;55.674;13.074;2023-02-28T07:00:24;3.40;99.90
20233;DHT22;37438;55.674;13.074;2023-02-28T07:03:30;3.30;99.90
20233;DHT22;37438;55.674;13.074;2023-02-28T07:06:37;3.10;99.90
20233;DHT22;37438;55.674;13.074;2023-02-28T07:09:41;3.20;99.90
20233;DHT22;37438;55.674;13.074;2023-02-28T07:12:46;3.20;99.90
20233;DHT22;37438;55.674;13.074;2023-02-28T07:16:02;3.10;99.90
20233;DHT22;37438;55.674;13.074;2023-02-28T07:19:07;3.10;99.90
20233;DHT22;37438;55.674;13.074;2023-02-28T07:22:11;3.30;99.90
20233;DHT22;37438;55.674;13.074;2023-02-28T07:25:18;3.50;99.90
20233;DHT22;37438;55.674;13.074;2023-02-28T07:28:23;3.80;99.90
20233;DHT22;37438;55.674;13.074;2023-02-28T07:31:28;3.80;99.90
20233;DHT22;37438;55.674;13.074;2023-02-28T07:34:33;4.20;99.90
20233;DHT22;37438;55.674;13.074;2023-02-28T07:37:37;4.50;99.90
20233;DHT22;37438;55.674;13.074;2023-02-28T07:40:42;4.70;99.90
20233;DHT22;37438;55.674;13.074;2023-02-28T07:43:46;4.70;99.90
20233;DHT22;37438;55.674;13.074;2023-02-28T07:46:51;4.90;99.90
20233;DHT22;37438;55.674;13.074;2023-02-28T07:49:57;5.50;99.90
20233;DHT22;37438;55.674;13.074;2023-02-28T07:53:02;5.40;99.90
20233;DHT22;37438;55.674;13.074;2023-02-28T07:56:06;5.40;99.90
20233;DHT22;37438;55.674;13.074;2023-02-28T07:59:11;5.10;99.90
20233;DHT22;37438;55.674;13.074;2023-02-28T08:02:17;5.40;99.90
20233;DHT22;37438;55.674;13.074;2023-02-28T08:05:22;5.70;99.90
20233;DHT22;37438;55.674;13.074;2023-02-28T08:08:26;5.90;99.90
20233;DHT22;37438;55.674;13.074;2023-02-28T08:11:35;6.10;99.90
20233;DHT22;37438;55.674;13.074;2023-02-28T08:14:40;6.20;99.90
20233;DHT22;37438;55.674;13.074;2023-02-28T08:17:45;6.50;99.90
20233;DHT22;37438;55.674;13.074;2023-02-28T08:20:49;6.90;99.90
20233;DHT22;37438;55.674;13.074;2023-02-28T08:23:54;6.80;99.90
20233;DHT22;37438;55.674;13.074;2023-02-28T08:26:58;6.90;99.90
20233;DHT22;37438;55.674;13.074;2023-02-28T08:30:03;6.60;99.90
20233;DHT22;37438;55.674;13.074;2023-02-28T08:33:07;6.20;99.90
20233;DHT22;37438;55.674;13.074;2023-02-28T08:36:12;6.10;99.90
20233;DHT22;37438;55.674;13.074;2023-02-28T08:39:16;6.30;99.90
20233;DHT22;37438;55.674;13.074;2023-02-28T08:42:23;5.80;99.90
20233;DHT22;37438;55.674;13.074;2023-02-28T08:45:27;5.70;99.90
20233;DHT22;37438;55.674;13.074;2023-02-28T08:48:34;5.80;99.90
20233;DHT22;37438;55.674;13.074;2023-02-28T08:51:38;6.30;99.90
20233;DHT22;37438;55.674;13.074;2023-02-28T08:54:42;6.20;99.90
20233;DHT22;37438;55.674;13.074;2023-02-28T08:57:47;6.40;99.90
20233;DHT22;37438;55.674;13.074;2023-02-28T09:00:52;6.70;99.90
20233;DHT22;37438;55.674;13.074;2023-02-28T09:03:57;6.40;99.90
20233;DHT22;37438;55.674;13.074;2023-02-28T09:07:02;6.50;99.90
20233;DHT22;37438;55.674;13.074;2023-02-28T09:10:06;6.60;99.90
20233;DHT22;37438;55.674;13.074;2023-02-28T09:13:10;7.20;99.90
20233;DHT22;37438;55.674;13.074;2023-02-28T09:16:16;7.60;99.90
20233;DHT22;37438;55.674;13.074;2023-02-28T09:19:20;7.60;99.90
20233;DHT22;37438;55.674;13.074;2023-02-28T09:22:25;7.70;99.90
20233;DHT22;37438;55.674;13.074;2023-02-28T09:25:30;7.90;99.90
20233;DHT22;37438;55.674;13.074;2023-02-28T09:28:34;8.00;99.90
20233;DHT22;37438;55.674;13.074;2023-02-28T09:31:38;7.90;99.90
20233;DHT22;37438;55.674;13.074;2023-02-28T09:34:43;7.90;99.90
20233;DHT22;37438;55.674;13.074;2023-02-28T09:37:48;8.30;99.90
20233;DHT22;37438;55.674;13.074;2023-02-28T09:40:56;8.70;99.90
20233;DHT22;37438;55.674;13.074;2023-02-28T09:44:03;8.70;99.90
20233;DHT22;37438;55.674;13.074;2023-02-28T09:50:49;8.90;99.90
20233;DHT22;37438;55.674;13.074;2023-02-28T09:53:55;9.10;99.90
20233;DHT22;37438;55.674;13.074;2023-02-28T10:00:43;9.30;99.90
20233;DHT22;37438;55.674;13.074;2023-02-28T10:07:02;9.60;99.90
20233;DHT22;37438;55.674;13.074;2023-02-28T10:13:48;9.60;99.90
20233;DHT22;37438;55.674;13.074;2023-02-28T10:17:02;9.80;99.90
20233;DHT22;37438;55.674;13.074;2023-02-28T10:20:13;9.20;99.90
20233;DHT22;37438;55.674;13.074;2023-02-28T10:23:31;9.10;99.90
20233;DHT22;37438;55.674;13.074;2023-02-28T10:26:39;9.30;99.90
20233;DHT22;37438;55.674;13.074;2023-02-28T10:29:50;9.20;99.90
20233;DHT22;37438;55.674;13.074;2023-02-28T10:32:55;9.90;99.90
20233;DHT22;37438;55.674;13.074;2023-02-28T10:36:01;10.20;99.90
20233;DHT22;37438;55.674;13.074;2023-02-28T10:42:39;10.30;1.00
20233;DHT22;37438;55.674;13.074;2023-02-28T10:49:05;10.00;99.90
20233;DHT22;37438;55.674;13.074;2023-02-28T10:52:09;9.90;99.90
20233;DHT22;37438;55.674;13.074;2023-02-28T10:55:20;10.00;99.90
20233;DHT22;37438;55.674;13.074;2023-02-28T10:58:27;10.10;99.90
20233;DHT22;37438;55.674;13.074;2023-02-28T11:04:37;9.90;99.90
20233;DHT22;37438;55.674;13.074;2023-02-28T11:07:54;9.90;14.30
20233;DHT22;37438;55.674;13.074;2023-02-28T11:11:03;10.70;1.00
20233;DHT22;37438;55.674;13.074;2023-02-28T11:14:20;10.40;99.90
20233;DHT22;37438;55.674;13.074;2023-02-28T11:17:28;10.40;41.80
20233;DHT22;37438;55.674;13.074;2023-02-28T11:20:33;10.70;71.90
20233;DHT22;37438;55.674;13.074;2023-02-28T11:23:40;10.60;49.00
20233;DHT22;37438;55.674;13.074;2023-02-28T11:26:47;10.40;99.90
20233;DHT22;37438;55.674;13.074;2023-02-28T11:29:52;11.20;99.90
20233;DHT22;37438;55.674;13.074;2023-02-28T11:32:57;11.70;99.90
20233;DHT22;37438;55.674;13.074;2023-02-28T11:36:09;11.60;1.00
20233;DHT22;37438;55.674;13.074;2023-02-28T11:39:14;11.10;99.90
20233;DHT22;37438;55.674;13.074;2023-02-28T11:42:38;11.60;99.90
20233;DHT22;37438;55.674;13.074;2023-02-28T11:52:53;12.20;99.90
20233;DHT22;37438;55.674;13.074;2023-02-28T11:56:10;11.70;99.90
20233;DHT22;37438;55.674;13.074;2023-02-28T11:59:59;12.10;99.90
20233;DHT22;37438;55.674;13.074;2023-02-28T12:10:11;11.80;28.30
20233;DHT22;37438;55.674;13.074;2023-02-28T12:13:26;12.10;99.90
20233;DHT22;37438;55.674;13.074;2023-02-28T12:16:44;12.30;99.90
20233;DHT22;37438;55.674;13.074;2023-02-28T12:23:49;12.10;99.50
20233;DHT22;37438;55.674;13.074;2023-02-28T12:26:54;12.30;49.10
20233;DHT22;37438;55.674;13.074;2023-02-28T12:30:05;12.30;21.10
20233;DHT22;37438;55.674;13.074;2023-02-28T12:33:16;12.30;1.40
20233;DHT22;37438;55.674;13.074;2023-02-28T12:36:21;12.30;89.80
20233;DHT22;37438;55.674;13.074;2023-02-28T12:39:33;12.80;76.50
20233;DHT22;37438;55.674;13.074;2023-02-28T12:42:58;12.60;61.20
20233;DHT22;37438;55.674;13.074;2023-02-28T12:46:17;11.60;1.00
20233;DHT22;37438;55.674;13.074;2023-02-28T12:49:37;11.60;1.00
20233;DHT22;37438;55.674;13.074;2023-02-28T12:59:58;12.90;99.90
20233;DHT22;37438;55.674;13.074;2023-02-28T13:03:20;13.20;99.90
20233;DHT22;37438;55.674;13.074;2023-02-28T13:06:52;13.20;99.90
20233;DHT22;37438;55.674;13.074;2023-02-28T13:10:04;12.40;99.90
20233;DHT22;37438;55.674;13.074;2023-02-28T13:13:16;12.70;99.90
20233;DHT22;37438;55.674;13.074;2023-02-28T13:16:21;13.30;67.90
20233;DHT22;37438;55.674;13.074;2023-02-28T13:19:31;13.00;99.90
20233;DHT22;37438;55.674;13.074;2023-02-28T13:22:51;13.10;81.20
20233;DHT22;37438;55.674;13.074;2023-02-28T13:25:57;12.80;99.90
20233;DHT22;37438;55.674;13.074;2023-02-28T13:32:28;12.70;99.90
20233;DHT22;37438;55.674;13.074;2023-02-28T13:35:38;13.00;99.90
20233;DHT22;37438;55.674;13.074;2023-02-28T13:41:55;13.50;91.30
20233;DHT22;37438;55.674;13.074;2023-02-28T13:48:23;14.30;1.00
20233;DHT22;37438;55.674;13.074;2023-02-28T13:51:47;12.70;99.90
20233;DHT22;37438;55.674;13.074;2023-02-28T13:58:50;13.30;45.20
20233;DHT22;37438;55.674;13.074;2023-02-28T14:05:34;13.10;99.90
20233;DHT22;37438;55.674;13.074;2023-02-28T14:08:43;13.60;1.00
20233;DHT22;37438;55.674;13.074;2023-02-28T14:11:48;14.00;1.00
20233;DHT22;37438;55.674;13.074;2023-02-28T14:14:54;13.50;1.00
20233;DHT22;37438;55.674;13.074;2023-02-28T14:18:25;14.10;1.00
20233;DHT22;37438;55.674;13.074;2023-02-28T14:21:33;13.40;1.00
20233;DHT22;37438;55.674;13.074;2023-02-28T14:28:03;12.20;95.80
20233;DHT22;37438;55.674;13.074;2023-02-28T14:31:15;12.50;99.90
20233;DHT22;37438;55.674;13.074;2023-02-28T14:37:40;13.00;19.00
20233;DHT22;37438;55.674;13.074;2023-02-28T14:40:46;13.00;12.10
20233;DHT22;37438;55.674;13.074;2023-02-28T14:43:54;13.70;1.00
20233;DHT22;37438;55.674;13.074;2023-02-28T14:47:02;12.90;1.00
20233;DHT22;37438;55.674;13.074;2023-02-28T14:50:26;13.60;1.00
20233;DHT22;37438;55.674;13.074;2023-02-28T14:53:36;12.80;1.00
20233;DHT22;37438;55.674;13.074;2023-02-28T14:56:41;12.70;38.40
20233;DHT22;37438;55.674;13.074;2023-02-28T14:59:46;12.80;11.30
20233;DHT22;37438;55.674;13.074;2023-02-28T15:02:52;12.40;61.50
20233;DHT22;37438;55.674;13.074;2023-02-28T15:06:03;12.50;68.20
20233;DHT22;37438;55.674;13.074;2023-02-28T15:09:19;12.20;99.90
20233;DHT22;37438;55.674;13.074;2023-02-28T15:12:25;11.90;99.90
20233;DHT22;37438;55.674;13.074;2023-02-28T15:19:23;11.10;93.60
20233;DHT22;37438;55.674;13.074;2023-02-28T15:22:35;10.90;99.90
20233;DHT22;37438;55.674;13.074;2023-02-28T15:25:40;10.80;99.90
20233;DHT22;37438;55.674;13.074;2023-02-28T15:28:45;10.60;99.90
20233;DHT22;37438;55.674;13.074;2023-02-28T15:32:19;11.60;99.00
20233;DHT22;37438;55.674;13.074;2023-02-28T15:38:29;12.00;99.90
20233;DHT22;37438;55.674;13.074;2023-02-28T15:41:38;13.50;98.60
20233;DHT22;37438;55.674;13.074;2023-02-28T15:44:42;13.10;23.90
20233;DHT22;37438;55.674;13.074;2023-02-28T15:47:47;12.70;99.90
20233;DHT22;37438;55.674;13.074;2023-02-28T15:50:54;12.20;99.90
20233;DHT22;37438;55.674;13.074;2023-02-28T15:54:06;11.70;99.90
20233;DHT22;37438;55.674;13.074;2023-02-28T15:57:23;11.60;1.00
20233;DHT22;37438;55.674;13.074;2023-02-28T16:00:30;11.60;99.90
20233;DHT22;37438;55.674;13.074;2023-02-28T16:03:59;11.20;99.90
20233;DHT22;37438;55.674;13.074;2023-02-28T16:07:06;11.20;99.90
20233;DHT22;37438;55.674;13.074;2023-02-28T16:10:12;11.10;99.90
20233;DHT22;37438;55.674;13.074;2023-02-28T16:13:18;11.00;99.90
20233;DHT22;37438;55.674;13.074;2023-02-28T16:16:24;10.80;99.90
20233;DHT22;37438;55.674;13.074;2023-02-28T16:19:28;10.00;99.90
20233;DHT22;37438;55.674;13.074;2023-02-28T16:22:33;8.30;1.00
20233;DHT22;37438;55.674;13.074;2023-02-28T16:25:40;7.90;99.90
20233;DHT22;37438;55.674;13.074;2023-02-28T16:28:45;7.30;14.80
20233;DHT22;37438;55.674;13.074;2023-02-28T16:31:49;7.10;99.90
20233;DHT22;37438;55.674;13.074;2023-02-28T16:34:54;7.20;99.90
20233;DHT22;37438;55.674;13.074;2023-02-28T16:37:59;6.70;99.90
20233;DHT22;37438;55.674;13.074;2023-02-28T16:41:03;6.50;99.90
20233;DHT22;37438;55.674;13.074;2023-02-28T16:47:35;6.40;99.90
20233;DHT22;37438;55.674;13.074;2023-02-28T16:50:39;6.40;99.90
20233;DHT22;37438;55.674;13.074;2023-02-28T16:53:44;6.30;99.90
20233;DHT22;37438;55.674;13.074;2023-02-28T16:56:49;6.10;99.90
20233;DHT22;37438;55.674;13.074;2023-02-28T16:59:54;6.00;99.90
20233;DHT22;37438;55.674;13.074;2023-02-28T17:02:59;5.90;99.90
20233;DHT22;37438;55.674;13.074;2023-02-28T17:06:04;5.70;99.90
20233;DHT22;37438;55.674;13.074;2023-02-28T17:09:17;5.70;99.90
20233;DHT22;37438;55.674;13.074;2023-02-28T17:12:22;5.50;99.90
20233;DHT22;37438;55.674;13.074;2023-02-28T17:15:26;5.50;99.90
20233;DHT22;37438;55.674;13.074;2023-02-28T17:18:31;5.30;99.90
20233;DHT22;37438;55.674;13.074;2023-02-28T17:21:38;5.30;99.90
20233;DHT22;37438;55.674;13.074;2023-02-28T17:24:42;5.20;99.90
20233;DHT22;37438;55.674;13.074;2023-02-28T17:27:47;5.20;99.90
20233;DHT22;37438;55.674;13.074;2023-02-28T17:30:52;5.10;99.90
20233;DHT22;37438;55.674;13.074;2023-02-28T17:33:56;5.00;99.90
20233;DHT22;37438;55.674;13.074;2023-02-28T17:37:00;4.90;99.90
20233;DHT22;37438;55.674;13.074;2023-02-28T17:40:12;5.00;99.90
20233;DHT22;37438;55.674;13.074;2023-02-28T17:43:18;5.00;99.90
20233;DHT22;37438;55.674;13.074;2023-02-28T17:46:23;5.00;99.90
20233;DHT22;37438;55.674;13.074;2023-02-28T17:49:29;5.10;99.90
20233;DHT22;37438;55.674;13.074;2023-02-28T17:52:34;5.20;99.90
20233;DHT22;37438;55.674;13.074;2023-02-28T17:55:41;5.00;99.90
20233;DHT22;37438;55.674;13.074;2023-02-28T17:58:45;5.10;99.90
20233;DHT22;37438;55.674;13.074;2023-02-28T18:01:49;5.20;99.90
20233;DHT22;37438;55.674;13.074;2023-02-28T18:04:54;5.10;99.90
20233;DHT22;37438;55.674;13.074;2023-02-28T18:07:58;4.90;99.90
20233;DHT22;37438;55.674;13.074;2023-02-28T18:11:04;4.90;99.90
20233;DHT22;37438;55.674;13.074;2023-02-28T18:14:09;5.00;99.90
20233;DHT22;37438;55.674;13.074;2023-02-28T18:17:13;5.00;99.90
20233;DHT22;37438;55.674;13.074;2023-02-28T18:20:17;5.00;99.90
20233;DHT22;37438;55.674;13.074;2023-02-28T18:23:22;4.90;99.90
20233;DHT22;37438;55.674;13.074;2023-02-28T18:26:27;4.80;99.90
20233;DHT22;37438;55.674;13.074;2023-02-28T18:29:32;4.80;99.90
20233;DHT22;37438;55.674;13.074;2023-02-28T18:32:37;4.80;99.90
20233;DHT22;37438;55.674;13.074;2023-02-28T18:35:41;4.90;99.90
20233;DHT22;37438;55.674;13.074;2023-02-28T18:38:48;4.70;99.90
20233;DHT22;37438;55.674;13.074;2023-02-28T18:41:53;4.60;99.90
20233;DHT22;37438;55.674;13.074;2023-02-28T18:44:58;4.50;99.90
20233;DHT22;37438;55.674;13.074;2023-02-28T18:48:02;4.40;99.90
20233;DHT22;37438;55.674;13.074;2023-02-28T18:51:15;4.50;99.90
20233;DHT22;37438;55.674;13.074;2023-02-28T18:54:19;4.50;99.90
20233;DHT22;37438;55.674;13.074;2023-02-28T18:57:24;4.30;99.90
20233;DHT22;37438;55.674;13.074;2023-02-28T19:00:29;4.40;99.90
20233;DHT22;37438;55.674;13.074;2023-02-28T19:03:33;4.40;99.90
20233;DHT22;37438;55.674;13.074;2023-02-28T19:06:37;4.40;99.90
20233;DHT22;37438;55.674;13.074;2023-02-28T19:09:42;4.30;99.90
20233;DHT22;37438;55.674;13.074;2023-02-28T19:12:46;4.30;99.90
20233;DHT22;37438;55.674;13.074;2023-02-28T19:15:54;4.10;99.90
20233;DHT22;37438;55.674;13.074;2023-02-28T19:19:04;4.10;99.90
20233;DHT22;37438;55.674;13.074;2023-02-28T19:22:09;4.00;99.90
20233;DHT22;37438;55.674;13.074;2023-02-28T19:25:13;4.20;99.90
20233;DHT22;37438;55.674;13.074;2023-02-28T19:28:18;4.10;99.90
20233;DHT22;37438;55.674;13.074;2023-02-28T19:31:24;3.80;99.90
20233;DHT22;37438;55.674;13.074;2023-02-28T19:34:29;3.70;99.90
20233;DHT22;37438;55.674;13.074;2023-02-28T19:37:37;3.50;99.90
20233;DHT22;37438;55.674;13.074;2023-02-28T19:40:42;3.40;99.90
20233;DHT22;37438;55.674;13.074;2023-02-28T19:43:47;3.40;99.90
20233;DHT22;37438;55.674;13.074;2023-02-28T19:46:51;3.40;99.90
20233;DHT22;37438;55.674;13.074;2023-02-28T19:49:57;3.30;99.90
20233;DHT22;37438;55.674;13.074;2023-02-28T19:53:02;3.30;99.90
20233;DHT22;37438;55.674;13.074;2023-02-28T19:56:08;3.30;99.90
20233;DHT22;37438;55.674;13.074;2023-02-28T19:59:12;3.20;99.90
20233;DHT22;37438;55.674;13.074;2023-02-28T20:02:34;3.10;99.90
20233;DHT22;37438;55.674;13.074;2023-02-28T20:05:38;3.10;99.90
20233;DHT22;37438;55.674;13.074;2023-02-28T20:08:43;2.90;99.90
20233;DHT22;37438;55.674;13.074;2023-02-28T20:11:47;2.80;99.90
20233;DHT22;37438;55.674;13.074;2023-02-28T20:14:53;2.80;99.90
20233;DHT22;37438;55.674;13.074;2023-02-28T20:18:00;2.70;99.90
20233;DHT22;37438;55.674;13.074;2023-02-28T20:21:07;2.70;99.90
20233;DHT22;37438;55.674;13.074;2023-02-28T20:24:11;2.50;99.90
20233;DHT22;37438;55.674;13.074;2023-02-28T20:27:16;2.50;99.90
20233;DHT22;37438;55.674;13.074;2023-02-28T20:30:21;2.40;99.90
20233;DHT22;37438;55.674;13.074;2023-02-28T20:33:27;2.40;99.90
20233;DHT22;37438;55.674;13.074;2023-02-28T20:36:32;2.20;99.90
20233;DHT22;37438;55.674;13.074;2023-02-28T20:39:36;2.10;99.90
20233;DHT22;37438;55.674;13.074;2023-02-28T20:42:41;2.10;99.90
20233;DHT22;37438;55.674;13.074;2023-02-28T20:45:56;2.30;99.90
20233;DHT22;37438;55.674;13.074;2023-02-28T20:49:02;2.50;99.90
20233;DHT22;37438;55.674;13.074;2023-02-28T20:52:06;2.50;99.90
20233;DHT22;37438;55.674;13.074;2023-02-28T20:55:11;2.10;99.90
20233;DHT22;37438;55.674;13.074;2023-02-28T20:58:16;2.00;99.90
20233;DHT22;37438;55.674;13.074;2023-02-28T21:01:23;2.10;99.90
20233;DHT22;37438;55.674;13.074;2023-02-28T21:04:31;2.10;99.90
20233;DHT22;37438;55.674;13.074;2023-02-28T21:07:36;2.10;99.90
20233;DHT22;37438;55.674;13.074;2023-02-28T21:10:40;2.00;99.90
20233;DHT22;37438;55.674;13.074;2023-02-28T21:13:45;1.90;99.90
20233;DHT22;37438;55.674;13.074;2023-02-28T21:16:50;1.90;99.90
20233;DHT22;37438;55.674;13.074;2023-02-28T21:19:55;1.80;99.90
20233;DHT22;37438;55.674;13.074;2023-02-28T21:23:00;2.00;99.90
20233;DHT22;37438;55.674;13.074;2023-02-28T21:26:11;1.70;99.90
20233;DHT22;37438;55.674;13.074;2023-02-28T21:29:16;1.60;99.90
20233;DHT22;37438;55.674;13.074;2023-02-28T21:32:20;1.60;99.90
20233;DHT22;37438;55.674;13.074;2023-02-28T21:35:24;1.60;99.90
20233;DHT22;37438;55.674;13.074;2023-02-28T21:38:29;1.60;99.90